Airfield :
LOGIN :

Register | Disclaimer

   EN    FR    IT 

 










Legend :    VFR   Marginal VFR   IFR   Intensive IFR   Very Intensive IFR
Visi :
Ceiling :
>= 8 km
>= 3000ft
5 to 8 km
1000 to 3000 ft
1500m to 5 km
500 to 1000 ft
800 to 1500m
200 to 500 ft
< 800m
< 200 ft
Symbols :   Thunderstorms  Fog  Heavy snow  Heavy precipitations  Wind > 20 kt
SIGMETs :     Misc.  Thunderstorms  Icing  Turbulence  Mountain Waves  Volcanic Ashes






- Airport Elevation : -15 ft
- IATA code : RTM


EHRD - Rotterdam Zestienhoven

CURRENT METAR :
  • 250625Z AUTO 35004KT 320V020 9000 NCD M00/M01 Q1001 NOSIG

EXPIRED METARs :
  • 250555Z AUTO 35004KT 320V020 9999 NSC 00/M01 Q1001 NOSIG
  • 250525Z AUTO 02003KT 350V050 9999 NSC 01/M00 Q1001 NOSIG
  • 250455Z AUTO 03004KT 350V070 9999 FEW027 01/M00 Q1000 NOSIG
  • 250425Z AUTO 03005KT 360V060 9999 BKN009 BKN011 01/M00 Q1000 NOSIG
  • 250355Z AUTO 04005KT 9999 BKN009 OVC010 01/00 Q0999 BECMG BKN030

TAF TAF EHRD
Valid from the 25 at 06:00 until the 26 at 12:00 UTC


250504Z 2506/2612 VRB03KT CAVOK
PROB30 2506/2508 4000 BR MIFG
BECMG 2511/2514 26011KT SCT025
TEMPO 2519/2610 6000 SHRA SCT018CB BKN025
BECMG 2520/2523 28018G28KT
PROB40
TEMPO 2522/2604 30022G33KT
BECMG 2603/2606 31008KT



MET'MAP, your aeronautical weather chart ! - Copyright ORBIFLY December 2007 - Disclaimer

ORBIFLY MET'MAP TEAM :

Programming & Development : Alexandra Zaïnal
Concept & original design : Baudouin d'Aumeries
Assistance for programming : Marc-Olivier Méhu
Technical & hardware support : Manuel Goepfert

Contact : metmap@orbifly.com




SOURCES & CREDITS :

   NOAA